Last 7 Days

Williams 2

Hourly Data | America/Los_Angeles
as of 8/11/20 5:16 AM PDT
Date & Time Temp (°F) RH (%) Dew Pt (°F) Wind Spd (mph) Wind Dir (°) Wind Gust (mph) Latest Rain (In) Daily Rain (In) Daily Min Temp (°F) Daily Max Temp (°F)
8/11/20 - 0500 60.5 79 54.1 2.3 WNW | 299 9.1 0.00 0.00 60.1 66.6
8/11/20 - 0400 61.8 76 54.2 3.1 WNW | 302 9.1 0.00 0.00 60.9 66.6
8/11/20 - 0300 63.2 71 53.8 2.6 NW | 305 12.1 0.00 0.00 62.5 66.6
8/11/20 - 0200 65.3 66 53.5 1.6 WNW | 284 6.4 0.00 0.00 64.4 66.6
8/11/20 - 0100 68.2 58 53.0 3.7 WNW | 294 9.5 0.00 0.00 60.7 96.8
8/11/20 - 0000 70.3 51 51.3 2.3 WNW | 292 9.1 0.00 0.00 60.7 96.8
8/10/20 - 2300 71.0 47 49.6 1.0 SE | 129 5.1 0.00 0.00 60.7 96.8
8/10/20 - 2200 73.2 43 49.5 0.7 ESE | 108 6.8 0.00 0.00 60.7 96.8
8/10/20 - 2100 76.4 40 50.2 0.8 SW | 223 4.8 0.00 0.00 60.7 96.8
8/10/20 - 2000 81.0 33 49.4 3.2 WNW | 282 9.8 0.00 0.00 60.7 96.8
8/10/20 - 1900 86.0 29 50.2 6.2 NW | 323 12.5 0.00 0.00 60.7 96.8
8/10/20 - 1800 90.2 27 52.0 6.8 NNW | 329 12.5 0.00 0.00 60.7 96.8
8/10/20 - 1700 92.0 28 54.0 7.8 NNW | 337 15.8 0.00 0.00 60.7 96.8
8/10/20 - 1600 94.3 28 56.0 8.4 NNW | 339 16.2 0.00 0.00 60.7 96.8
8/10/20 - 1500 95.3 28 56.9 6.7 NNW | 333 13.8 0.00 0.00 60.7 96.8
8/10/20 - 1400 94.1 28 56.3 3.5 S | 180 11.8 0.00 0.00 60.7 95.1
8/10/20 - 1300 90.1 31 55.7 3.4 ESE | 112 8.4 0.00 0.00 60.7 92.9
8/10/20 - 1200 84.9 36 55.3 5.2 ESE | 107 10.1 0.00 0.00 60.7 86.8
8/10/20 - 1100 81.2 40 54.6 5.3 ESE | 111 10.1 0.00 0.00 60.7 83.4
8/10/20 - 1000 78.0 45 54.6 4.0 SE | 131 8.1 0.00 0.00 60.7 79.8
8/10/20 - 0900 73.9 46 51.9 0.1 SSW | 198 3.1 0.00 0.00 60.7 77.7
8/10/20 - 0800 65.0 59 50.1 0.0 N | 0 0.0 0.00 0.00 60.7 73.1
8/10/20 - 0700 61.1 63 48.5 0.0 N | 0 0.0 0.00 0.00 60.7 73.1
8/10/20 - 0600 62.1 62 48.8 0.1 NNW | 339 2.4 0.00 0.00 61.4 73.1
8/10/20 - 0500 63.4 59 48.7 0.3 N | 1 5.1 0.00 0.00 62.8 73.1
8/10/20 - 0400 65.4 55 48.9 0.4 SE | 144 3.4 0.00 0.00 63.8 73.1
8/10/20 - 0300 67.6 50 48.5 0.6 SE | 133 3.8 0.00 0.00 66.3 73.1
8/10/20 - 0200 71.1 43 47.3 0.2 W | 261 3.1 0.00 0.00 68.6 73.1
8/10/20 - 0100 72.2 42 47.9 0.1 SE | 143 4.4 0.00 0.00 58.7 99.8
8/10/20 - 0000 75.9 38 48.1 1.1 SSW | 196 4.8 0.00 0.00 58.7 99.8
8/9/20 - 2300 76.3 38 49.1 1.2 S | 182 5.8 0.00 0.00 58.7 99.8
8/9/20 - 2200 77.3 38 50.0 1.0 SE | 137 4.4 0.00 0.00 58.7 99.8
8/9/20 - 2100 81.7 33 49.7 4.9 NW | 318 12.8 0.00 0.00 58.7 99.8
8/9/20 - 2000 88.5 26 49.1 5.6 NNW | 338 10.8 0.00 0.00 58.7 99.8
8/9/20 - 1900 93.5 24 51.7 3.9 NW | 320 11.1 0.00 0.00 58.7 99.8
8/9/20 - 1800 96.5 25 54.7 4.7 W | 269 10.8 0.00 0.00 58.7 99.8
8/9/20 - 1700 98.8 24 55.2 3.5 W | 275 9.1 0.00 0.00 58.7 99.8
8/9/20 - 1600 98.2 25 56.6 4.9 SSW | 210 10.5 0.00 0.00 58.7 99.1
8/9/20 - 1500 96.7 25 54.8 5.3 SSE | 163 12.1 0.00 0.00 58.7 97.9
8/9/20 - 1400 93.2 28 55.1 5.2 SSE | 157 10.8 0.00 0.00 58.7 95.2
8/9/20 - 1300 89.8 31 54.9 4.5 SSE | 150 10.5 0.00 0.00 58.7 92.3
8/9/20 - 1200 85.9 35 55.4 4.4 SSE | 158 10.1 0.00 0.00 58.7 87.2
8/9/20 - 1100 83.0 40 56.4 3.0 SE | 146 7.1 0.00 0.00 58.7 84.6
8/9/20 - 1000 78.2 49 57.3 1.1 SSE | 154 5.4 0.00 0.00 58.7 80.8
8/9/20 - 0900 72.2 57 56.3 0.4 S | 191 3.8 0.00 0.00 58.7 74.7
8/9/20 - 0800 63.7 72 54.3 0.0 ENE | 75 1.1 0.00 0.00 58.7 69.8
8/9/20 - 0700 59.1 76 51.5 0.0 N | 0 0.0 0.00 0.00 58.7 64.3
8/9/20 - 0600 59.6 74 51.4 0.0 N | 0 0.0 0.00 0.00 59.1 64.3
8/9/20 - 0500 60.3 72 51.4 0.0 N | 0 0.0 0.00 0.00 59.8 64.3
8/9/20 - 0400 61.0 73 52.3 0.0 N | 0 0.0 0.00 0.00 60.7 64.3
8/9/20 - 0300 62.0 70 52.3 0.0 N | 0 0.0 0.00 0.00 61.4 64.3
8/9/20 - 0200 63.4 70 53.4 0.0 N | 0 0.0 0.00 0.00 62.8 64.3
8/9/20 - 0100 66.1 65 54.2 0.0 SE | 129 2.4 0.00 0.00 58.1 95.4
8/9/20 - 0000 69.2 60 54.8 0.0 ESE | 104 1.1 0.00 0.00 58.1 95.4
8/8/20 - 2300 71.7 57 55.5 0.1 ESE | 107 2.4 0.00 0.00 58.1 95.4
8/8/20 - 2200 74.4 52 55.9 0.4 NW | 316 6.1 0.00 0.00 58.1 95.4
8/8/20 - 2100 77.9 47 56.3 2.1 NW | 318 8.1 0.00 0.00 58.1 95.4
8/8/20 - 2000 83.5 40 56.5 5.7 N | 350 10.5 0.00 0.00 58.1 95.4
8/8/20 - 1900 89.0 34 56.7 5.3 NNW | 346 10.1 0.00 0.00 58.1 95.4
8/8/20 - 1800 92.6 30 57.0 5.3 NW | 323 12.1 0.00 0.00 58.1 95.4
8/8/20 - 1700 94.0 30 57.4 3.6 W | 264 8.4 0.00 0.00 58.1 95.4
8/8/20 - 1600 94.0 30 57.8 4.6 SW | 234 9.8 0.00 0.00 58.1 94.7
8/8/20 - 1500 92.9 30 56.9 4.6 SSE | 164 14.5 0.00 0.00 58.1 94.5
8/8/20 - 1400 89.8 34 57.4 5.1 SSE | 152 10.8 0.00 0.00 58.1 92.4
8/8/20 - 1300 86.3 38 57.6 5.4 SSE | 149 10.8 0.00 0.00 58.1 87.9
8/8/20 - 1200 82.5 43 57.8 5.3 SE | 130 10.5 0.00 0.00 58.1 84.8
8/8/20 - 1100 79.0 48 57.4 4.7 SE | 124 9.8 0.00 0.00 58.1 81.4
8/8/20 - 1000 74.3 54 56.8 2.1 ESE | 105 6.8 0.00 0.00 58.1 76.7
8/8/20 - 0900 69.2 63 56.2 1.1 ESE | 123 4.8 0.00 0.00 58.1 76.3
8/8/20 - 0800 62.7 74 54.2 0.4 SE | 139 3.8 0.00 0.00 58.1 76.3
8/8/20 - 0700 58.5 77 51.5 0.0 N | 0 0.0 0.00 0.00 58.1 76.3
8/8/20 - 0600 59.0 76 51.6 0.0 N | 0 0.0 0.00 0.00 58.3 76.3
8/8/20 - 0500 60.1 75 52.0 0.0 N | 0 0.0 0.00 0.00 59.5 76.3
8/8/20 - 0400 61.6 74 53.1 0.0 N | 0 0.0 0.00 0.00 60.7 76.3
8/8/20 - 0300 63.6 71 54.0 0.1 SE | 127 2.7 0.00 0.00 62.5 76.3
8/8/20 - 0200 68.9 60 54.3 1.0 SSE | 147 7.4 0.00 0.00 64.4 76.3
8/8/20 - 0100 76.9 45 54.0 6.8 NNW | 341 13.2 0.00 0.00 53.9 90.9
8/8/20 - 0000 77.6 44 54.1 6.5 NNW | 343 14.8 0.00 0.00 53.9 90.9
8/7/20 - 2300 74.0 51 54.7 2.8 NNW | 341 12.8 0.00 0.00 53.9 90.9
8/7/20 - 2200 73.4 53 55.3 0.3 SSE | 159 2.7 0.00 0.00 53.9 90.9
8/7/20 - 2100 77.1 48 55.6 2.4 NE | 50 7.8 0.00 0.00 53.9 90.9
8/7/20 - 2000 82.4 40 55.7 1.9 NW | 320 8.1 0.00 0.00 53.9 90.9
8/7/20 - 1900 86.2 35 55.0 4.4 NW | 317 10.1 0.00 0.00 53.9 90.9
8/7/20 - 1800 88.6 32 55.4 4.4 W | 268 10.8 0.00 0.00 53.9 90.9
8/7/20 - 1700 89.2 33 56.0 5.0 SW | 220 10.8 0.00 0.00 53.9 90.9
8/7/20 - 1600 89.5 33 56.6 4.6 SSE | 165 9.5 0.00 0.00 53.9 90.9
8/7/20 - 1500 87.6 36 57.5 4.7 S | 178 10.5 0.00 0.00 53.9 89.1
8/7/20 - 1400 85.8 39 57.8 5.2 SSE | 157 10.1 0.00 0.00 53.9 87.2
8/7/20 - 1300 82.2 44 58.0 3.6 SSE | 151 10.1 0.00 0.00 53.9 84.8
8/7/20 - 1200 77.8 50 57.4 3.1 SSE | 161 8.8 0.00 0.00 53.9 79.6
8/7/20 - 1100 74.6 54 57.0 2.6 SE | 133 8.1 0.00 0.00 53.9 76.6
8/7/20 - 1000 69.8 62 56.3 1.7 SE | 130 5.8 0.00 0.00 53.9 73.1
8/7/20 - 0900 65.5 70 55.3 0.1 SSE | 162 2.4 0.00 0.00 53.9 68.1
8/7/20 - 0800 59.2 81 53.5 0.1 SE | 130 2.4 0.00 0.00 53.9 63.5
8/7/20 - 0700 54.5 84 49.9 0.0 SSE | 149 1.7 0.00 0.00 53.9 60.4
8/7/20 - 0600 54.5 83 49.4 0.0 N | 0 0.0 0.00 0.00 53.9 60.4
8/7/20 - 0500 55.6 82 50.1 0.0 N | 0 0.0 0.00 0.00 55.0 60.4
8/7/20 - 0400 57.4 79 51.0 0.0 SE | 139 3.1 0.00 0.00 56.3 60.4
8/7/20 - 0300 58.6 77 51.5 0.0 ESE | 112 2.1 0.00 0.00 58.2 60.4
8/7/20 - 0200 59.5 72 50.6 0.0 N | 0 0.0 0.00 0.00 58.5 60.4
8/7/20 - 0100 61.2 69 50.9 0.0 N | 0 0.0 0.00 0.00 52.6 87.0
8/7/20 - 0000 63.4 66 51.7 0.0 N | 0 0.0 0.00 0.00 52.6 87.0
8/6/20 - 2300 65.9 62 52.6 0.0 ESE | 108 2.4 0.00 0.00 52.6 87.0
8/6/20 - 2200 69.6 56 53.3 0.1 E | 88 2.7 0.00 0.00 52.6 87.0
8/6/20 - 2100 74.7 48 53.4 0.4 S | 191 3.8 0.00 0.00 52.6 87.0
8/6/20 - 2000 80.7 40 53.8 1.6 SSE | 153 7.4 0.00 0.00 52.6 87.0
8/6/20 - 1900 83.7 38 55.7 3.7 SSW | 201 9.8 0.00 0.00 52.6 87.0
8/6/20 - 1800 84.7 38 56.6 5.4 SW | 226 12.1 0.00 0.00 52.6 87.0
8/6/20 - 1700 85.4 38 56.9 6.2 WSW | 248 13.5 0.00 0.00 52.6 87.0
8/6/20 - 1600 85.7 38 57.3 7.5 W | 269 15.2 0.00 0.00 52.6 87.0
8/6/20 - 1500 85.2 39 57.4 6.1 NW | 305 12.1 0.00 0.00 52.6 87.0
8/6/20 - 1400 82.3 44 58.3 3.9 SSE | 157 10.1 0.00 0.00 52.6 85.2
8/6/20 - 1300 77.8 51 58.4 4.6 SE | 138 11.5 0.00 0.00 52.6 79.5
8/6/20 - 1200 73.3 59 57.9 3.2 SSE | 160 8.4 0.00 0.00 52.6 75.8
8/6/20 - 1100 70.1 64 57.4 3.6 SSE | 156 8.8 0.00 0.00 52.6 72.2
8/6/20 - 1000 66.3 71 56.5 2.1 S | 181 8.1 0.00 0.00 52.6 68.0
8/6/20 - 0900 61.2 80 55.2 1.0 SW | 230 4.4 0.00 0.00 52.6 64.0
8/6/20 - 0800 58.6 85 54.1 0.4 WNW | 296 3.1 0.00 0.00 52.6 59.7
8/6/20 - 0700 57.0 87 53.1 0.6 NW | 324 3.8 0.00 0.00 52.6 58.0
8/6/20 - 0600 55.2 88 51.9 0.6 NNW | 333 3.8 0.00 0.00 52.6 56.6
8/6/20 - 0500 53.3 89 50.3 0.1 NNW | 344 2.7 0.00 0.00 52.6 55.1
8/6/20 - 0400 53.4 88 49.9 0.0 NNW | 343 2.4 0.00 0.00 53.0 55.1
8/6/20 - 0300 53.9 87 50.2 0.1 W | 280 2.1 0.00 0.00 53.7 55.1
8/6/20 - 0200 54.5 86 50.4 0.1 N | 354 2.7 0.00 0.00 53.8 55.1
8/6/20 - 0100 56.1 84 51.3 0.4 NNW | 335 3.4 0.00 0.00 52.0 80.0
8/6/20 - 0000 57.8 82 52.4 0.6 N | 351 4.8 0.00 0.00 52.0 80.0
8/5/20 - 2300 59.2 79 52.6 0.1 SE | 144 2.1 0.00 0.00 52.0 80.0
8/5/20 - 2200 61.6 75 53.7 1.5 S | 172 7.1 0.00 0.00 52.0 80.0
8/5/20 - 2100 63.9 70 54.1 2.9 S | 184 9.1 0.00 0.00 52.0 80.0
8/5/20 - 2000 67.9 63 55.0 4.6 SW | 215 13.2 0.00 0.00 52.0 80.0
8/5/20 - 1900 71.5 57 55.7 6.7 SW | 226 16.8 0.00 0.00 52.0 80.0
8/5/20 - 1800 74.2 53 56.2 7.5 SW | 224 15.8 0.00 0.00 52.0 80.0
8/5/20 - 1700 76.2 51 56.8 7.9 SW | 222 16.5 0.00 0.00 52.0 80.0
8/5/20 - 1600 78.0 49 57.2 7.8 SW | 226 17.2 0.00 0.00 52.0 80.0
8/5/20 - 1500 79.2 48 57.7 6.8 SW | 235 14.2 0.00 0.00 52.0 80.0
8/5/20 - 1400 77.7 50 57.7 7.3 S | 188 15.5 0.00 0.00 52.0 79.9
8/5/20 - 1300 74.7 55 57.3 7.2 S | 184 15.2 0.00 0.00 52.0 76.8
8/5/20 - 1200 72.3 58 56.7 6.1 S | 180 13.8 0.00 0.00 52.0 74.3
8/5/20 - 1100 68.7 64 56.1 5.9 S | 181 11.1 0.00 0.00 52.0 71.0
8/5/20 - 1000 65.0 71 55.3 6.1 S | 188 11.5 0.00 0.00 52.0 66.9
8/5/20 - 0900 62.4 76 54.6 1.8 SSE | 149 9.5 0.00 0.00 52.0 64.0
8/5/20 - 0800 57.0 87 53.2 1.3 SE | 146 4.8 0.00 0.00 52.0 61.0
8/5/20 - 0700 53.6 90 50.7 0.7 ENE | 64 3.1 0.00 0.00 52.0 58.1
8/5/20 - 0600 52.5 89 49.4 0.2 ESE | 119 3.4 0.00 0.00 52.0 58.1
8/5/20 - 0500 52.6 87 48.9 0.0 ENE | 65 2.1 0.00 0.00 52.1 58.1
8/5/20 - 0400 53.8 86 49.7 0.1 WSW | 252 2.7 0.00 0.00 53.3 58.1
8/5/20 - 0300 55.2 84 50.6 0.1 W | 270 2.4 0.00 0.00 54.4 58.1
8/5/20 - 0200 57.0 82 51.5 0.1 NE | 46 2.4 0.00 0.00 56.0 58.1
8/5/20 - 0100 60.0 78 53.1 0.1 NNE | 15 2.4 0.00 0.00 52.6 93.4
8/5/20 - 0000 61.6 75 53.7 0.6 ENE | 60 3.4 0.00 0.00 52.6 93.4
8/4/20 - 2300 64.3 70 54.5 0.3 ENE | 77 3.4 0.00 0.00 52.6 93.4
8/4/20 - 2200 67.5 65 55.5 1.1 NE | 50 4.1 0.00 0.00 52.6 93.4
8/4/20 - 2100 72.0 57 56.1 1.0 N | 8 4.1 0.00 0.00 52.6 93.4
8/4/20 - 2000 77.5 49 56.6 4.0 NNW | 329 9.5 0.00 0.00 52.6 93.4
8/4/20 - 1900 84.6 38 56.5 4.7 NNW | 333 11.5 0.00 0.00 52.6 93.4
8/4/20 - 1800 86.9 35 56.3 6.3 NNW | 338 12.8 0.00 0.00 52.6 93.4
8/4/20 - 1700 89.8 32 56.2 6.5 NNW | 334 12.1 0.00 0.00 52.6 93.4
8/4/20 - 1600 91.3 30 55.3 6.3 NW | 317 12.1 0.00 0.00 52.6 93.4
8/4/20 - 1500 91.2 32 57.1 3.9 N | 11 10.5 0.00 0.00 52.6 93.4
8/4/20 - 1400 87.3 37 58.0 3.6 ESE | 116 8.4 0.00 0.00 52.6 89.6
8/4/20 - 1300 83.2 42 57.9 5.3 SE | 135 11.1 0.00 0.00 52.6 85.5
8/4/20 - 1200 80.0 47 58.1 4.2 SE | 142 10.1 0.00 0.00 52.6 81.3
8/4/20 - 1100 76.6 52 57.6 4.1 ESE | 119 8.8 0.00 0.00 52.6 79.3
8/4/20 - 1000 72.3 58 56.9 2.4 SE | 141 6.1 0.00 0.00 52.6 75.2
8/4/20 - 0900 68.0 65 56.0 1.1 S | 175 5.4 0.00 0.00 52.6 70.5
8/4/20 - 0800 59.6 81 53.6 0.0 E | 84 0.7 0.00 0.00 52.6 65.4
8/4/20 - 0700 53.6 86 49.4 0.0 SSW | 196 1.4 0.00 0.00 52.6 62.4
8/4/20 - 0600 54.0 84 49.4 0.0 N | 0 0.0 0.00 0.00 53.4 62.4
Max 98.8 90 58.4 8.4 - 17.2 0.00 0.00 68.6 99.8
Avg 73.0 55 54.0 2.6 - 7.1 0.00 - - -
Min 52.5 24 47.3 0.0 - 0.0 0.00 0.00 52.0 55.1
Total - - - - - - 0.00 - - -
Tip: Bookmark this page for easy future reference